Time;durP1;ratioP1;P1;durP2;ratioP2;P2;SDS_P1;SDS_P2;PMS_P1;PMS_P2;Temp;Humidity;BMP_temperature;BMP_pressure;BME280_temperature;BME280_humidity;BME280_pressure;Samples;Min_cycle;Max_cycle;Signal;HPM_P1;HPM_P2
2022/08/03 00:01:57;;;;;;;14.13;12.43;;;14.30;99.90;;;;;;5093768;28;20035;-73
2022/08/03 00:04:23;;;;;;;13.80;12.50;;;14.30;99.90;;;;;;5093536;28;20043;-73
2022/08/03 00:06:49;;;;;;;12.45;11.32;;;14.20;99.90;;;;;;5093406;28;20028;-72
2022/08/03 00:09:15;;;;;;;10.68;9.80;;;14.10;99.90;;;;;;5094827;28;20485;-74
2022/08/03 00:11:41;;;;;;;15.27;13.77;;;14.00;99.90;;;;;;5094668;28;20030;-74
2022/08/03 00:14:07;;;;;;;15.35;13.27;;;13.80;99.90;;;;;;5092500;28;20073;-74
2022/08/03 00:16:33;;;;;;;15.77;13.63;;;13.80;99.90;;;;;;5094565;28;20518;-74
2022/08/03 00:18:59;;;;;;;14.82;13.30;;;13.90;99.90;;;;;;5093351;28;20020;-73
2022/08/03 00:21:25;;;;;;;14.80;13.40;;;13.90;99.90;;;;;;5093469;28;20470;-73
2022/08/03 00:23:50;;;;;;;16.70;13.02;;;13.90;99.90;;;;;;5094393;28;20043;-73
2022/08/03 00:26:16;;;;;;;15.15;13.55;;;13.80;99.90;;;;;;5094659;28;20049;-73
2022/08/03 00:28:42;;;;;;;19.50;14.27;;;13.90;99.90;;;;;;5094343;28;20035;-75
2022/08/03 00:31:08;;;;;;;16.80;13.70;;;13.90;99.90;;;;;;5094487;28;20103;-74
2022/08/03 00:33:33;;;;;;;16.08;13.77;;;13.90;99.90;;;;;;5094427;28;20507;-73
2022/08/03 00:35:59;;;;;;;14.88;13.45;;;13.90;99.90;;;;;;5094283;28;20018;-74
2022/08/03 00:38:24;;;;;;;14.02;12.63;;;13.90;99.90;;;;;;5094136;28;20027;-72
2022/08/03 00:40:50;;;;;;;14.98;13.27;;;13.90;99.90;;;;;;5094309;28;20052;-73
2022/08/03 00:43:16;;;;;;;13.13;11.82;;;13.80;99.90;;;;;;5094225;28;20028;-74
2022/08/03 00:45:42;;;;;;;12.77;11.43;;;13.80;99.90;;;;;;5094174;28;20020;-73
2022/08/03 00:48:10;;;;;;;14.32;12.82;;;13.80;99.90;;;;;;5092658;28;20046;-74
2022/08/03 00:50:41;;;;;;;12.10;10.70;;;13.80;99.90;;;;;;5093917;28;20024;-72
2022/08/03 00:53:10;;;;;;;12.15;10.95;;;13.70;99.90;;;;;;5093876;28;20075;-73
2022/08/03 00:55:37;;;;;;;12.10;10.95;;;13.70;99.90;;;;;;5092656;28;20062;-74
2022/08/03 00:58:05;;;;;;;11.02;10.02;;;13.60;99.90;;;;;;5093921;28;20537;-75
2022/08/03 01:00:35;;;;;;;11.18;10.07;;;13.70;99.90;;;;;;5093838;28;20031;-72
2022/08/03 01:03:01;;;;;;;19.08;12.57;;;13.70;99.90;;;;;;5094189;28;20504;-73
2022/08/03 01:05:28;;;;;;;10.43;9.43;;;13.60;99.90;;;;;;5093718;28;20020;-73
2022/08/03 01:08:02;;;;;;;12.00;10.80;;;13.60;99.90;;;;;;5092360;28;20070;-73
2022/08/03 01:10:37;;;;;;;13.10;11.88;;;13.60;99.90;;;;;;5093707;28;20028;-73
2022/08/03 01:13:31;;;;;;;11.60;10.18;;;13.60;99.90;;;;;;5093827;28;20107;-73
2022/08/03 01:15:59;;;;;;;10.88;9.88;;;13.60;99.90;;;;;;5093520;28;20031;-72
2022/08/03 01:18:37;;;;;;;11.85;10.75;;;13.60;99.90;;;;;;5092176;28;20020;-73
2022/08/03 01:21:10;;;;;;;10.65;9.65;;;13.60;99.90;;;;;;5093564;28;20107;-74
2022/08/03 01:23:45;;;;;;;10.93;9.82;;;13.60;99.90;;;;;;5093278;28;20028;-73
2022/08/03 01:26:19;;;;;;;12.05;10.38;;;13.60;99.90;;;;;;5093364;28;20047;-73
2022/08/03 01:28:53;;;;;;;13.20;11.40;;;13.60;99.90;;;;;;5093299;28;20036;-74
2022/08/03 01:31:26;;;;;;;13.00;11.70;;;13.60;99.90;;;;;;5093449;28;20028;-74
2022/08/03 01:33:58;;;;;;;12.50;11.30;;;13.60;99.90;;;;;;5092243;28;20051;-72
2022/08/03 01:36:28;;;;;;;14.38;11.93;;;13.50;99.90;;;;;;5093194;28;20442;-74
2022/08/03 01:39:01;;;;;;;16.02;12.88;;;13.50;99.90;;;;;;5092164;28;20090;-72
2022/08/03 01:41:31;;;;;;;;;;;13.50;99.90;;;;;;5092496;28;20377;-74
2022/08/03 01:44:00;;;;;;;13.30;11.90;;;13.50;99.90;;;;;;5093353;28;19911;-73
2022/08/03 01:46:28;;;;;;;12.07;10.90;;;13.50;99.90;;;;;;5092934;28;20111;-73
2022/08/03 01:48:55;;;;;;;10.40;9.40;;;13.40;99.90;;;;;;5093215;28;20028;-73
2022/08/03 01:51:22;;;;;;;9.85;9.00;;;13.40;99.90;;;;;;5093274;28;20047;-73
2022/08/03 01:53:50;;;;;;;10.15;9.20;;;13.30;99.90;;;;;;5092953;28;20044;-73
2022/08/03 01:56:18;;;;;;;10.07;9.18;;;13.30;99.90;;;;;;5091718;28;20120;-72
2022/08/03 01:58:46;;;;;;;12.07;9.23;;;13.30;99.90;;;;;;5091768;28;20431;-72
2022/08/03 02:01:13;;;;;;;11.23;9.90;;;13.30;99.90;;;;;;5091865;28;20027;-74
2022/08/03 02:03:42;;;;;;;11.65;9.88;;;13.30;99.90;;;;;;5092030;28;20059;-72
2022/08/03 02:06:10;;;;;;;14.75;13.13;;;13.30;99.90;;;;;;5092965;28;20013;-72
2022/08/03 02:08:38;;;;;;;13.95;12.50;;;13.30;99.90;;;;;;5092881;28;20518;-74
2022/08/03 02:11:05;;;;;;;13.23;10.82;;;13.30;99.90;;;;;;5091622;28;20020;-73
2022/08/03 02:13:33;;;;;;;13.10;10.57;;;13.30;99.90;;;;;;5093027;28;20043;-72
2022/08/03 02:15:59;;;;;;;11.73;10.63;;;13.30;99.90;;;;;;5092808;28;20020;-74
2022/08/03 02:18:26;;;;;;;11.10;10.10;;;13.30;99.90;;;;;;5091605;28;20451;-72
2022/08/03 02:20:53;;;;;;;9.73;8.88;;;13.30;99.90;;;;;;5092846;28;20074;-73
2022/08/03 02:23:18;;;;;;;8.38;7.57;;;13.20;99.90;;;;;;5091511;28;20031;-72
2022/08/03 02:25:49;;;;;;;8.13;7.25;;;13.10;99.90;;;;;;5092834;28;20020;-73
2022/08/03 02:28:27;;;;;;;9.82;9.00;;;13.10;99.90;;;;;;5092680;28;20499;-72
2022/08/03 02:30:54;;;;;;;8.55;7.82;;;13.10;99.90;;;;;;5092821;28;20024;-73
2022/08/03 02:33:30;;;;;;;8.07;7.10;;;13.10;99.90;;;;;;5092759;28;20052;-74
2022/08/03 02:35:56;;;;;;;8.10;7.50;;;13.00;99.90;;;;;;5093496;28;20034;-72
2022/08/03 02:38:30;;;;;;;8.63;7.93;;;13.00;99.90;;;;;;5096443;28;20032;-74
2022/08/03 02:40:57;;;;;;;9.63;8.77;;;13.00;99.90;;;;;;5096878;28;20112;-72
2022/08/03 02:43:24;;;;;;;9.68;8.77;;;13.00;99.90;;;;;;5095241;28;20024;-72
2022/08/03 02:45:53;;;;;;;9.88;8.88;;;13.00;99.90;;;;;;5096426;28;20055;-73
2022/08/03 02:48:26;;;;;;;10.23;9.23;;;13.00;99.90;;;;;;5096139;28;20478;-74
2022/08/03 02:50:55;;;;;;;12.50;11.25;;;13.00;99.90;;;;;;5095406;28;20123;-72
2022/08/03 02:53:23;;;;;;;11.25;10.15;;;13.00;99.90;;;;;;5096260;28;20040;-73
2022/08/03 02:55:49;;;;;;;12.45;10.40;;;13.00;99.90;;;;;;5096344;28;20046;-74
2022/08/03 02:58:20;;;;;;;12.10;10.90;;;13.00;99.90;;;;;;5096000;28;20028;-73
2022/08/03 03:00:47;;;;;;;13.23;11.82;;;13.00;99.90;;;;;;5096168;28;20191;-74
2022/08/03 03:03:13;;;;;;;12.95;10.45;;;13.00;99.90;;;;;;5096195;28;20089;-73
2022/08/03 03:05:40;;;;;;;11.25;10.18;;;13.00;99.90;;;;;;5096098;28;20020;-73
2022/08/03 03:08:08;;;;;;;11.07;9.23;;;13.00;99.90;;;;;;5095784;28;20489;-74
2022/08/03 03:10:36;;;;;;;10.40;9.30;;;12.90;99.90;;;;;;5095791;28;20485;-72
2022/08/03 03:13:01;;;;;;;13.35;11.95;;;12.90;99.90;;;;;;5094597;28;20499;-73
2022/08/03 03:15:29;;;;;;;15.15;13.02;;;13.00;99.90;;;;;;5096035;28;20043;-73
2022/08/03 03:17:56;;;;;;;13.68;12.35;;;13.00;99.90;;;;;;5095835;28;20032;-73
2022/08/03 03:20:24;;;;;;;15.73;13.20;;;12.90;99.90;;;;;;5095741;28;20099;-73
2022/08/03 03:22:50;;;;;;;18.42;15.02;;;12.90;99.90;;;;;;5095619;28;20024;-72
2022/08/03 03:25:16;;;;;;;14.50;12.10;;;13.00;99.90;;;;;;5095705;28;20081;-73
2022/08/03 03:27:42;;;;;;;11.38;9.63;;;13.00;99.90;;;;;;5095619;28;20043;-72
2022/08/03 03:30:09;;;;;;;10.73;9.73;;;13.00;99.90;;;;;;5095665;28;20024;-73
2022/08/03 03:32:38;;;;;;;12.25;11.00;;;12.90;99.90;;;;;;5095349;28;20024;-73
2022/08/03 03:35:05;;;;;;;12.98;10.35;;;13.00;99.90;;;;;;5094359;28;20051;-75
2022/08/03 03:37:31;;;;;;;9.43;8.52;;;13.00;99.90;;;;;;5095162;28;20058;-72
2022/08/03 03:39:57;;;;;;;9.68;8.68;;;13.00;99.90;;;;;;5095583;28;20056;-74
2022/08/03 03:42:24;;;;;;;10.25;9.25;;;13.00;99.90;;;;;;5093955;28;20443;-74
2022/08/03 03:44:50;;;;;;;11.77;9.13;;;13.00;99.90;;;;;;5095393;28;20482;-72
2022/08/03 03:47:16;;;;;;;18.85;13.95;;;13.00;99.90;;;;;;5094723;28;20047;-74
2022/08/03 03:49:42;;;;;;;15.80;11.88;;;13.10;99.90;;;;;;5095337;28;20032;-74
2022/08/03 03:52:09;;;;;;;21.25;17.42;;;13.00;99.90;;;;;;5095086;28;20073;-72
2022/08/03 03:54:44;;;;;;;21.00;15.27;;;13.20;99.90;;;;;;5095060;28;20024;-74
2022/08/03 03:57:10;;;;;;;16.30;13.40;;;13.20;99.90;;;;;;5093670;28;20028;-73
2022/08/03 03:59:43;;;;;;;21.73;13.98;;;13.30;99.90;;;;;;5095011;28;20493;-74
2022/08/03 04:02:10;;;;;;;16.02;12.23;;;13.30;99.90;;;;;;5093788;28;20020;-72
2022/08/03 04:13:12;;;;;;;14.27;12.55;;;13.50;99.90;;;;;;5094690;28;20062;-72
2022/08/03 04:15:39;;;;;;;16.73;14.40;;;13.40;99.90;;;;;;5094629;28;20020;-74
2022/08/03 04:18:07;;;;;;;19.48;15.30;;;13.40;99.90;;;;;;5093308;28;20020;-73
2022/08/03 04:20:35;;;;;;;16.88;13.52;;;13.50;99.90;;;;;;5094479;28;20016;-72
2022/08/03 04:23:02;;;;;;;16.50;14.55;;;13.50;99.90;;;;;;5094470;28;20025;-74
2022/08/03 04:25:32;;;;;;;34.33;21.83;;;13.60;99.90;;;;;;5094562;28;20026;-73
2022/08/03 04:28:00;;;;;;;23.35;17.60;;;13.60;99.90;;;;;;5094202;28;20028;-73
2022/08/03 04:30:32;;;;;;;20.30;17.38;;;13.70;99.90;;;;;;5094362;28;20032;-74
2022/08/03 04:33:00;;;;;;;20.13;16.40;;;13.80;99.90;;;;;;5093135;28;20024;-73
2022/08/03 04:35:30;;;;;;;25.67;19.08;;;14.00;99.90;;;;;;5094566;28;20050;-72
2022/08/03 04:37:58;;;;;;;25.73;19.50;;;14.20;99.90;;;;;;5094274;28;20035;-72
2022/08/03 04:40:32;;;;;;;21.60;18.48;;;14.30;99.90;;;;;;5094221;28;20482;-72
2022/08/03 04:42:58;;;;;;;23.80;20.02;;;14.50;99.90;;;;;;5093047;28;20031;-73
2022/08/03 04:45:26;;;;;;;24.67;19.25;;;14.60;99.90;;;;;;5094211;28;20023;-74
2022/08/03 04:47:53;;;;;;;20.02;18.00;;;14.70;99.90;;;;;;5094204;28;20097;-74
2022/08/03 04:50:20;;;;;;;23.05;20.65;;;14.70;99.90;;;;;;5093989;28;20143;-72
2022/08/03 04:52:46;;;;;;;23.55;20.38;;;14.90;99.90;;;;;;5093793;28;20460;-74
2022/08/03 04:55:12;;;;;;;24.58;20.17;;;15.00;99.90;;;;;;5092383;28;20032;-72
2022/08/03 04:57:37;;;;;;;21.70;19.40;;;15.20;99.90;;;;;;5093250;28;20438;-74
2022/08/03 05:00:04;;;;;;;22.10;19.70;;;15.20;99.90;;;;;;5092534;28;20520;-75
2022/08/03 05:02:30;;;;;;;21.73;19.15;;;15.40;99.90;;;;;;5090033;28;20038;-73
2022/08/03 05:04:57;;;;;;;22.15;19.77;;;15.50;99.90;;;;;;5093068;28;20036;-74
2022/08/03 05:07:22;;;;;;;24.58;21.02;;;15.60;99.90;;;;;;5093206;28;20120;-72
2022/08/03 05:09:50;;;;;;;21.95;19.67;;;15.70;99.90;;;;;;5093594;28;20023;-73
2022/08/03 05:12:15;;;;;;;23.15;20.70;;;15.80;99.90;;;;;;5092222;28;20032;-72
2022/08/03 05:14:41;;;;;;;23.67;21.17;;;16.00;99.90;;;;;;5093477;28;20077;-74
2022/08/03 05:17:07;;;;;;;22.77;20.15;;;16.10;99.90;;;;;;5093437;28;20461;-74
2022/08/03 05:19:33;;;;;;;25.17;22.60;;;16.30;99.90;;;;;;5092122;28;20031;-74
2022/08/03 05:21:59;;;;;;;24.75;22.20;;;16.50;99.90;;;;;;5092246;28;20020;-73
2022/08/03 05:24:25;;;;;;;28.00;25.10;;;16.70;99.90;;;;;;5091632;28;20027;-74
2022/08/03 05:26:50;;;;;;;25.10;22.48;;;16.90;99.90;;;;;;5093251;28;20028;-74
2022/08/03 05:29:16;;;;;;;26.73;23.92;;;17.10;99.90;;;;;;5093310;28;20495;-73
2022/08/03 05:31:42;;;;;;;29.00;25.92;;;17.30;99.90;;;;;;5093318;28;20028;-74
2022/08/03 05:34:08;;;;;;;28.73;25.63;;;17.50;99.90;;;;;;5091993;28;20020;-74
2022/08/03 05:36:33;;;;;;;28.50;24.52;;;17.60;99.90;;;;;;5092835;28;20362;-75
2022/08/03 05:38:59;;;;;;;30.25;27.02;;;17.80;99.90;;;;;;5091800;28;20016;-74
2022/08/03 05:41:25;;;;;;;32.63;27.15;;;18.00;99.90;;;;;;5091478;28;20378;-73
2022/08/03 05:43:54;;;;;;;36.17;30.02;;;18.10;99.90;;;;;;5092917;28;20035;-73
2022/08/03 05:46:21;;;;;;;36.38;30.27;;;18.30;99.90;;;;;;5093042;28;20016;-73
2022/08/03 05:48:47;;;;;;;36.88;30.23;;;18.40;99.90;;;;;;5092894;28;20064;-72
2022/08/03 05:51:13;;;;;;;30.33;26.23;;;18.50;99.90;;;;;;5093256;28;20505;-73
2022/08/03 05:53:40;;;;;;;29.42;25.98;;;18.60;99.90;;;;;;5093092;28;20486;-72
2022/08/03 05:56:05;;;;;;;31.63;25.05;;;18.60;99.90;;;;;;5092389;28;20519;-73
2022/08/03 05:58:31;;;;;;;27.48;23.25;;;18.70;99.90;;;;;;5091327;28;20016;-72
2022/08/03 06:00:57;;;;;;;27.98;24.33;;;18.80;99.90;;;;;;5092111;28;20138;-72
2022/08/03 06:03:22;;;;;;;29.88;26.60;;;18.90;99.90;;;;;;5092967;28;20393;-73
2022/08/03 06:05:48;;;;;;;26.60;23.50;;;19.00;99.90;;;;;;5092413;28;20601;-73
2022/08/03 06:08:14;;;;;;;31.67;26.52;;;19.10;99.90;;;;;;5092251;28;20586;-74
2022/08/03 06:10:39;;;;;;;28.02;23.30;;;19.10;99.90;;;;;;5092957;28;20020;-74
2022/08/03 06:13:05;;;;;;;28.38;23.83;;;19.20;99.90;;;;;;5095512;28;20024;-72
2022/08/03 06:15:32;;;;;;;27.23;24.27;;;19.30;99.90;;;;;;5095064;28;20028;-74
2022/08/03 06:17:58;;;;;;;27.42;24.42;;;19.50;99.90;;;;;;5096798;28;20024;-74
2022/08/03 06:20:24;;;;;;;29.50;24.50;;;19.70;99.90;;;;;;5096725;28;20043;-75
2022/08/03 06:22:50;;;;;;;25.70;23.02;;;19.80;99.90;;;;;;5095453;28;20474;-75
2022/08/03 06:25:16;;;;;;;26.85;23.27;;;20.00;99.90;;;;;;5096891;28;20035;-73
2022/08/03 06:27:42;;;;;;;24.65;22.08;;;20.20;99.90;;;;;;5096673;28;20039;-73
2022/08/03 06:30:09;;;;;;;25.77;23.02;;;20.30;99.90;;;;;;5096754;28;20389;-75
2022/08/03 06:32:41;;;;;;;26.05;23.05;;;20.50;99.90;;;;;;5092845;28;20077;-74
2022/08/03 06:35:08;;;;;;;26.60;23.75;;;20.60;99.90;;;;;;5090922;28;20032;-74
2022/08/03 06:37:44;;;;;;;23.52;21.00;;;20.80;99.90;;;;;;5085883;28;20082;-75
2022/08/03 06:40:16;;;;;;;25.98;22.98;;;20.90;99.90;;;;;;5074282;28;20062;-73
2022/08/03 06:42:42;;;;;;;23.70;21.05;;;21.30;99.90;;;;;;5075957;28;20031;-73
2022/08/03 06:45:08;;;;;;;22.08;19.75;;;21.50;99.90;;;;;;5079459;28;20107;-74
2022/08/03 06:47:39;;;;;;;24.60;22.20;;;21.70;99.90;;;;;;5074481;28;20033;-74
2022/08/03 06:50:05;;;;;;;22.67;20.10;;;21.90;99.90;;;;;;5075589;28;20020;-74
2022/08/03 06:52:31;;;;;;;19.50;17.55;;;22.10;99.90;;;;;;5081875;28;20170;-75
2022/08/03 06:54:57;;;;;;;21.80;19.60;;;22.30;99.90;;;;;;5103662;28;20136;-74
2022/08/03 06:57:23;;;;;;;19.33;17.15;;;22.50;99.90;;;;;;5091820;28;20028;-73
2022/08/03 06:59:49;;;;;;;18.92;17.08;;;22.60;99.90;;;;;;5089379;28;20031;-73
2022/08/03 07:02:15;;;;;;;23.10;18.02;;;22.70;99.90;;;;;;5092233;28;20032;-73
2022/08/03 07:04:41;;;;;;;17.83;16.00;;;22.80;99.90;;;;;;5090752;28;20016;-73
2022/08/03 07:07:06;;;;;;;18.20;16.40;;;22.80;99.90;;;;;;5086661;28;20070;-74
2022/08/03 07:09:32;;;;;;;16.45;14.75;;;22.70;99.90;;;;;;5074336;28;20390;-77
2022/08/03 07:11:58;;;;;;;15.90;13.70;;;22.60;99.90;;;;;;5075036;28;20093;-73
2022/08/03 07:14:24;;;;;;;17.25;15.50;;;22.50;99.90;;;;;;5078855;28;20530;-75
2022/08/03 07:16:49;;;;;;;15.30;13.85;;;22.30;99.90;;;;;;5090131;28;20423;-75
2022/08/03 07:19:15;;;;;;;15.63;14.13;;;22.20;99.90;;;;;;5092138;28;20028;-74
2022/08/03 07:21:41;;;;;;;15.13;13.70;;;22.10;99.90;;;;;;5091185;28;20381;-73
2022/08/03 07:24:06;;;;;;;16.13;14.52;;;22.00;99.90;;;;;;5094506;28;20024;-73
2022/08/03 07:26:32;;;;;;;16.90;14.13;;;22.00;99.90;;;;;;5094658;28;20071;-73
2022/08/03 07:28:59;;;;;;;19.23;16.60;;;22.00;99.90;;;;;;5095365;28;20082;-73
2022/08/03 07:31:25;;;;;;;18.90;16.95;;;21.80;99.90;;;;;;5094256;28;20012;-73
2022/08/03 07:33:51;;;;;;;19.58;17.17;;;21.80;99.90;;;;;;5095288;28;20028;-74
2022/08/03 07:36:16;;;;;;;18.50;16.60;;;21.80;99.90;;;;;;5093728;28;20047;-75
2022/08/03 07:38:42;;;;;;;19.58;17.65;;;21.90;99.90;;;;;;5095101;28;20070;-75
2022/08/03 07:41:08;;;;;;;17.92;16.05;;;22.10;99.90;;;;;;5086187;28;20386;-74
2022/08/03 07:43:33;;;;;;;19.23;17.23;;;22.00;99.90;;;;;;5073721;28;20024;-74
2022/08/03 07:45:59;;;;;;;17.42;14.77;;;22.00;99.90;;;;;;5078195;28;20012;-75
2022/08/03 07:48:25;;;;;;;18.35;16.45;;;22.20;99.90;;;;;;5074639;28;20037;-75
2022/08/03 07:50:51;;;;;;;16.70;15.00;;;22.40;99.90;;;;;;5074982;28;20029;-75
2022/08/03 07:53:17;;;;;;;15.23;13.73;;;22.40;99.90;;;;;;5073522;28;20059;-74
2022/08/03 07:55:43;;;;;;;16.75;15.05;;;22.60;99.90;;;;;;5074460;28;20375;-73
2022/08/03 07:58:17;;;;;;;15.98;14.40;;;22.80;99.90;;;;;;5088105;28;20020;-73
2022/08/03 08:00:43;;;;;;;15.32;14.02;;;23.00;99.90;;;;;;5091397;28;20028;-73
2022/08/03 08:03:09;;;;;;;15.30;13.88;;;23.20;99.90;;;;;;5091391;28;20028;-73
2022/08/03 08:05:35;;;;;;;17.05;15.25;;;23.50;99.90;;;;;;5090116;28;20027;-74
2022/08/03 08:08:02;;;;;;;15.63;14.18;;;23.50;95.20;;;;;;5083767;28;20398;-74
2022/08/03 08:10:28;;;;;;;16.67;14.85;;;23.70;96.30;;;;;;5072532;28;20098;-75
2022/08/03 08:12:55;;;;;;;15.48;12.85;;;23.90;97.20;;;;;;5074311;28;20103;-73
2022/08/03 08:15:22;;;;;;;13.98;12.55;;;24.20;96.20;;;;;;5073066;28;20021;-73
2022/08/03 08:17:53;;;;;;;12.98;11.63;;;24.30;94.50;;;;;;5072746;28;20055;-72
2022/08/03 08:20:26;;;;;;;14.25;11.77;;;24.50;94.50;;;;;;5072913;28;20516;-73
2022/08/03 08:22:53;;;;;;;13.93;12.50;;;24.60;87.50;;;;;;5078712;28;20025;-75
2022/08/03 08:25:19;;;;;;;12.60;11.50;;;24.70;86.00;;;;;;5073506;28;20021;-73
2022/08/03 08:27:47;;;;;;;14.65;13.15;;;24.90;86.40;;;;;;5073718;28;20141;-73
2022/08/03 08:30:18;;;;;;;11.85;10.80;;;24.70;82.70;;;;;;5073983;28;20031;-74
2022/08/03 08:32:44;;;;;;;15.82;13.65;;;24.50;85.80;;;;;;5074010;28;20032;-75
2022/08/03 08:35:11;;;;;;;13.98;12.27;;;24.30;90.30;;;;;;5071755;28;20033;-73
2022/08/03 08:37:38;;;;;;;12.02;10.93;;;24.20;90.70;;;;;;5073694;28;20060;-75
2022/08/03 08:40:05;;;;;;;12.20;11.07;;;24.20;89.70;;;;;;5073351;28;20024;-75
2022/08/03 08:42:37;;;;;;;13.52;11.35;;;24.40;87.50;;;;;;5073597;28;20047;-74
2022/08/03 08:45:07;;;;;;;12.77;11.52;;;24.50;83.70;;;;;;5078936;28;20035;-75
2022/08/03 08:47:37;;;;;;;11.73;10.65;;;24.60;82.20;;;;;;5072421;28;20041;-73
2022/08/03 08:50:03;;;;;;;11.25;10.15;;;24.90;79.90;;;;;;5073833;28;20478;-74
2022/08/03 08:52:30;;;;;;;11.70;10.52;;;25.20;79.10;;;;;;5073286;28;20097;-73
2022/08/03 08:54:59;;;;;;;13.15;10.55;;;25.30;76.30;;;;;;5073248;28;20111;-73
2022/08/03 08:57:30;;;;;;;11.40;10.30;;;25.60;76.00;;;;;;5073467;28;20017;-72
2022/08/03 08:59:57;;;;;;;12.23;11.07;;;25.70;76.40;;;;;;5072450;28;20023;-75
2022/08/03 09:02:29;;;;;;;12.82;11.55;;;25.50;74.30;;;;;;5073392;28;20035;-75
2022/08/03 09:04:56;;;;;;;11.45;10.35;;;25.40;73.00;;;;;;5073354;28;20016;-76
2022/08/03 09:07:22;;;;;;;11.52;10.32;;;25.40;73.60;;;;;;5072281;28;20036;-73
2022/08/03 09:09:48;;;;;;;12.73;11.48;;;25.60;73.00;;;;;;5072659;28;20028;-73
2022/08/03 09:12:14;;;;;;;12.27;11.18;;;25.70;71.10;;;;;;5072953;28;20100;-72
2022/08/03 09:14:40;;;;;;;14.88;11.98;;;25.90;71.90;;;;;;5087601;28;20012;-72
2022/08/03 09:17:07;;;;;;;12.00;10.90;;;26.10;70.90;;;;;;5091586;28;20027;-73
2022/08/03 09:19:33;;;;;;;12.60;11.40;;;26.10;69.80;;;;;;5109511;28;20016;-73
2022/08/03 09:22:10;;;;;;;11.77;10.57;;;26.10;69.10;;;;;;5112771;28;20027;-75
2022/08/03 09:24:37;;;;;;;11.95;10.85;;;26.00;67.40;;;;;;5093051;28;20049;-75
2022/08/03 09:27:09;;;;;;;12.05;11.02;;;26.20;68.50;;;;;;5093012;28;20065;-76
2022/08/03 09:29:35;;;;;;;11.40;10.25;;;26.30;67.70;;;;;;5093273;28;20020;-75
2022/08/03 09:32:02;;;;;;;10.77;9.88;;;26.60;66.90;;;;;;5093545;28;20024;-74
2022/08/03 09:34:28;;;;;;;10.80;9.82;;;26.80;65.20;;;;;;5091872;28;20024;-73
2022/08/03 09:36:56;;;;;;;11.68;10.65;;;26.80;65.50;;;;;;5093203;28;20058;-75
2022/08/03 09:39:30;;;;;;;10.57;9.52;;;26.80;67.30;;;;;;5092960;28;20051;-73
2022/08/03 09:42:16;;;;;;;10.73;9.73;;;27.00;66.40;;;;;;5093455;28;20032;-75
2022/08/03 09:44:44;;;;;;;11.95;8.95;;;27.00;65.30;;;;;;5091538;28;20027;-76
2022/08/03 09:47:11;;;;;;;9.98;9.07;;;26.80;64.40;;;;;;5091015;28;20016;-75
2022/08/03 09:49:38;;;;;;;9.93;9.13;;;26.70;63.90;;;;;;5090743;28;20119;-73
2022/08/03 09:52:18;;;;;;;9.38;8.57;;;26.60;62.40;;;;;;5093015;28;20385;-73
2022/08/03 09:54:49;;;;;;;8.65;7.93;;;26.50;63.00;;;;;;5093215;28;20028;-72
2022/08/03 09:57:22;;;;;;;8.43;6.93;;;26.60;60.90;;;;;;5084955;28;20402;-75
2022/08/03 09:59:49;;;;;;;7.65;6.95;;;26.40;61.00;;;;;;5072078;28;20024;-73
2022/08/03 10:02:26;;;;;;;8.77;8.07;;;26.20;59.80;;;;;;5083443;28;20025;-76
2022/08/03 10:04:53;;;;;;;9.55;8.38;;;26.00;61.10;;;;;;5091243;28;20032;-77
2022/08/03 10:07:21;;;;;;;8.52;7.82;;;25.80;62.00;;;;;;5072439;28;20025;-76
2022/08/03 10:10:01;;;;;;;8.75;8.00;;;25.90;61.80;;;;;;5071330;28;20029;-77
2022/08/03 10:12:27;;;;;;;8.65;7.95;;;26.40;61.40;;;;;;5072541;28;20109;-76
2022/08/03 10:14:54;;;;;;;8.32;7.35;;;26.20;61.90;;;;;;5080978;28;20020;-77
2022/08/03 10:17:21;;;;;;;8.32;7.53;;;26.50;60.80;;;;;;5074853;28;20045;-72
2022/08/03 10:19:47;;;;;;;8.65;7.95;;;26.30;59.70;;;;;;5072525;28;20028;-75
2022/08/03 10:22:17;;;;;;;9.80;9.00;;;26.30;59.80;;;;;;5075231;28;20035;-72
2022/08/03 10:24:59;;;;;;;9.02;8.32;;;26.50;62.60;;;;;;5080302;28;20028;-75
2022/08/03 10:27:30;;;;;;;8.07;7.40;;;26.50;61.30;;;;;;5071054;28;20033;-73
2022/08/03 10:30:00;;;;;;;8.90;8.18;;;26.50;62.50;;;;;;5071074;28;20095;-72
2022/08/03 10:32:40;;;;;;;8.80;8.10;;;26.40;62.00;;;;;;5071733;28;20537;-75
2022/08/03 10:35:15;;;;;;;7.65;7.05;;;26.40;59.60;;;;;;5070845;28;20486;-75
2022/08/03 10:37:43;;;;;;;9.25;7.93;;;26.70;57.50;;;;;;5072288;28;20016;-75
2022/08/03 10:40:13;;;;;;;8.70;7.90;;;27.00;58.60;;;;;;5072187;28;20107;-75
2022/08/03 10:42:42;;;;;;;7.88;7.07;;;26.90;58.50;;;;;;5070988;28;20125;-75
2022/08/03 10:45:18;;;;;;;8.63;7.13;;;27.00;58.30;;;;;;5081282;28;20352;-75
2022/08/03 10:47:46;;;;;;;7.18;6.57;;;27.20;58.60;;;;;;5085304;28;20044;-75
2022/08/03 10:50:12;;;;;;;9.45;5.78;;;27.30;54.00;;;;;;5072312;28;20023;-75
2022/08/03 10:53:01;;;;;;;6.68;6.18;;;27.40;52.30;;;;;;5070783;28;20117;-72
2022/08/03 10:58:35;;;;;;;6.53;5.90;;;27.70;52.80;;;;;;5085058;28;20027;-74
2022/08/03 11:01:01;;;;;;;6.80;6.00;;;27.90;52.40;;;;;;5080349;28;20027;-74
2022/08/03 11:03:26;;;;;;;7.20;6.55;;;28.10;52.00;;;;;;5094027;28;20413;-74
2022/08/03 11:05:54;;;;;;;7.43;6.82;;;28.10;52.90;;;;;;5094811;28;20107;-74
2022/08/03 11:08:26;;;;;;;7.68;6.55;;;28.30;54.50;;;;;;5095890;28;20024;-74
2022/08/03 11:10:55;;;;;;;7.10;6.47;;;28.50;54.70;;;;;;5096180;28;20024;-74
2022/08/03 11:13:23;;;;;;;6.57;5.97;;;28.60;53.50;;;;;;5096012;28;20043;-74
2022/08/03 17:47:51;;;;;;;10.68;9.55;;;26.40;72.70;;;;;;5065057;28;20184;-77
2022/08/03 17:50:17;;;;;;;9.68;8.88;;;26.10;74.60;;;;;;5084622;28;20023;-76
2022/08/03 17:52:46;;;;;;;10.70;9.65;;;26.00;75.60;;;;;;5080596;28;20216;-77
2022/08/03 17:55:23;;;;;;;10.48;9.48;;;25.90;76.30;;;;;;5092457;28;20016;-75
2022/08/03 17:58:03;;;;;;;11.05;9.35;;;25.80;76.80;;;;;;5079571;28;20028;-76
2022/08/03 18:03:43;;;;;;;10.25;8.65;;;25.30;80.20;;;;;;5092890;28;20032;-76
2022/08/03 18:06:09;;;;;;;9.68;8.68;;;25.10;81.60;;;;;;5093933;28;20032;-76
2022/08/03 18:08:55;;;;;;;8.55;7.75;;;24.80;83.40;;;;;;5096983;28;20039;-76
2022/08/03 18:11:24;;;;;;;9.32;8.32;;;24.70;84.10;;;;;;5096335;28;20032;-76
2022/08/03 18:14:10;;;;;;;9.75;8.10;;;24.30;84.50;;;;;;5095364;28;20069;-76
2022/08/03 18:16:56;;;;;;;10.25;9.00;;;23.90;88.10;;;;;;5083932;28;20031;-76
2022/08/03 18:19:22;;;;;;;8.45;7.75;;;23.80;90.90;;;;;;5093915;28;20032;-76
2022/08/03 18:21:51;;;;;;;10.02;9.02;;;23.50;90.70;;;;;;5096390;28;20062;-76
2022/08/03 18:24:22;;;;;;;13.70;12.35;;;23.20;92.70;;;;;;5095878;28;20031;-76
2022/08/03 18:26:48;;;;;;;12.43;11.23;;;23.10;94.20;;;;;;5089987;28;20099;-75
2022/08/03 18:29:14;;;;;;;11.30;10.20;;;22.90;95.50;;;;;;5073815;28;20039;-75
2022/08/03 18:31:41;;;;;;;10.00;8.98;;;22.80;95.60;;;;;;5088111;28;20020;-75
2022/08/03 18:34:07;;;;;;;12.70;11.48;;;22.80;95.10;;;;;;5096750;28;20055;-76
2022/08/03 18:36:36;;;;;;;12.80;10.20;;;22.60;99.90;;;;;;5095305;28;20058;-75
2022/08/03 18:39:03;;;;;;;11.82;10.63;;;22.50;99.90;;;;;;5096551;28;20392;-76
2022/08/03 18:41:31;;;;;;;10.90;9.93;;;22.40;99.90;;;;;;5096500;28;20385;-76
2022/08/03 18:43:57;;;;;;;10.73;9.60;;;22.30;99.90;;;;;;5094970;28;20032;-76
2022/08/03 18:46:38;;;;;;;12.25;9.93;;;22.20;97.60;;;;;;5096241;28;20051;-75
2022/08/03 18:49:34;;;;;;;11.60;10.40;;;22.10;99.00;;;;;;5096221;28;20516;-76
2022/08/03 18:52:16;;;;;;;11.85;10.65;;;22.00;99.90;;;;;;5090678;28;20379;-75
2022/08/03 18:55:06;;;;;;;13.07;11.30;;;21.80;99.90;;;;;;5094886;28;20012;-75
2022/08/03 18:57:47;;;;;;;26.05;22.23;;;21.70;99.90;;;;;;5096122;28;20073;-75
2022/08/03 19:00:15;;;;;;;17.23;13.82;;;21.50;99.90;;;;;;5092563;28;20434;-75
2022/08/03 19:03:03;;;;;;;12.63;10.45;;;21.40;99.90;;;;;;5095295;28;20044;-76
2022/08/03 19:05:31;;;;;;;19.92;16.70;;;21.30;99.90;;;;;;5095940;28;20024;-75
2022/08/03 19:07:58;;;;;;;14.05;12.15;;;21.20;99.90;;;;;;5095759;28;20044;-76
2022/08/03 19:10:36;;;;;;;17.92;15.00;;;21.10;99.90;;;;;;5088876;28;20390;-72
2022/08/03 19:13:32;;;;;;;29.92;20.77;;;21.10;99.90;;;;;;5090729;28;20061;-73
2022/08/03 19:16:02;;;;;;;33.78;23.98;;;21.00;99.90;;;;;;5088694;28;20163;-73
2022/08/03 19:18:30;;;;;;;21.98;15.77;;;20.80;99.90;;;;;;5088639;28;20440;-73
2022/08/03 19:20:57;;;;;;;17.38;12.88;;;20.80;99.90;;;;;;5094496;28;20016;-74
2022/08/03 19:23:24;;;;;;;18.88;15.20;;;20.70;99.90;;;;;;5094997;28;20020;-73
2022/08/03 19:25:51;;;;;;;19.38;12.93;;;20.60;99.90;;;;;;5093345;28;20115;-73